Time;durP1;ratioP1;P1;durP2;ratioP2;P2;SDS_P1;SDS_P2;PMS_P1;PMS_P2;Temp;Humidity;BMP_temperature;BMP_pressure;BME280_temperature;BME280_humidity;BME280_pressure;Samples;Min_cycle;Max_cycle;Signal;HPM_P1;HPM_P2
2022/10/25 00:00:53;;;;;;;2.43;1.20;;;;;;;;;;5063448;28;20225;-87
2022/10/25 00:03:21;;;;;;;3.87;1.50;;;;;;;;;;5072937;28;20241;-87
2022/10/25 00:05:48;;;;;;;2.90;1.30;;;;;;;;;;5072592;28;20231;-87
2022/10/25 00:08:15;;;;;;;4.93;1.47;;;;;;;;;;5072532;28;20233;-86
2022/10/25 00:10:43;;;;;;;3.90;1.37;;;;;;;;;;5073261;28;20227;-87
2022/10/25 00:13:10;;;;;;;1.20;1.10;;;;;;;;;;5072606;28;20229;-87
2022/10/25 00:15:37;;;;;;;3.73;1.40;;;;;;;;;;5074383;28;20221;-87
2022/10/25 00:18:04;;;;;;;2.90;1.27;;;;;;;;;;5073571;28;20881;-87
2022/10/25 00:20:31;;;;;;;4.40;1.40;;;;;;;;;;5073575;28;20232;-87
2022/10/25 00:22:58;;;;;;;3.53;1.43;;;;;;;;;;5072889;28;20233;-87
2022/10/25 00:25:26;;;;;;;2.83;1.40;;;;;;;;;;5072969;28;20216;-87
2022/10/25 00:27:54;;;;;;;3.17;1.70;;;;;;;;;;5072063;28;20229;-87
2022/10/25 00:30:21;;;;;;;2.03;1.20;;;;;;;;;;5072680;28;20609;-87
2022/10/25 00:32:51;;;;;;;1.30;1.20;;;;;;;;;;5072308;28;20609;-86
2022/10/25 00:35:18;;;;;;;3.03;1.30;;;;;;;;;;5072434;28;20236;-87
2022/10/25 00:37:45;;;;;;;4.20;1.47;;;;;;;;;;5071517;28;20708;-86
2022/10/25 00:40:13;;;;;;;1.43;1.33;;;;;;;;;;5072527;28;20221;-87
2022/10/25 00:42:40;;;;;;;2.53;1.30;;;;;;;;;;5072171;28;20237;-87
2022/10/25 00:45:19;;;;;;;3.13;1.30;;;;;;;;;;5071928;28;20201;-86
2022/10/25 00:47:53;;;;;;;4.30;1.33;;;;;;;;;;5071572;28;20228;-86
2022/10/25 00:50:25;;;;;;;2.90;1.40;;;;;;;;;;5071978;28;20236;-86
2022/10/25 00:52:55;;;;;;;5.23;1.50;;;;;;;;;;5072074;28;20244;-86
2022/10/25 00:55:24;;;;;;;3.07;1.33;;;;;;;;;;5072722;28;20202;-86
2022/10/25 00:57:54;;;;;;;3.40;1.50;;;;;;;;;;5071719;28;20727;-86
2022/10/25 01:00:23;;;;;;;3.73;1.40;;;;;;;;;;5072922;28;20235;-86
2022/10/25 01:02:50;;;;;;;4.23;1.30;;;;;;;;;;5072264;28;20229;-86
2022/10/25 01:05:17;;;;;;;5.47;1.40;;;;;;;;;;5083577;28;20205;-86
2022/10/25 01:07:44;;;;;;;3.60;1.47;;;;;;;;;;5091307;28;20321;-87
2022/10/25 01:10:12;;;;;;;3.80;1.20;;;;;;;;;;5091822;28;20217;-87
2022/10/25 01:12:39;;;;;;;2.17;1.30;;;;;;;;;;5073520;28;20229;-87
2022/10/25 01:15:06;;;;;;;3.23;1.43;;;;;;;;;;5095254;28;20196;-87
2022/10/25 01:17:39;;;;;;;6.60;1.43;;;;;;;;;;5095551;28;20223;-87
2022/10/25 01:20:17;;;;;;;2.77;1.33;;;;;;;;;;5076627;28;20221;-87
2022/10/25 01:22:50;;;;;;;2.03;1.60;;;;;;;;;;5073538;28;20610;-86
2022/10/25 01:25:34;;;;;;;5.93;1.50;;;;;;;;;;5073945;28;20190;-87
2022/10/25 01:28:05;;;;;;;2.17;1.40;;;;;;;;;;5064774;28;20229;-87
2022/10/25 01:30:45;;;;;;;2.47;1.37;;;;;;;;;;5072623;28;20225;-86
2022/10/25 01:33:16;;;;;;;5.07;1.30;;;;;;;;;;5071379;28;20236;-86
2022/10/25 01:35:45;;;;;;;2.30;1.70;;;;;;;;;;5072190;28;20668;-86
2022/10/25 01:38:21;;;;;;;2.20;1.57;;;;;;;;;;5071180;28;20236;-86
2022/10/25 01:40:53;;;;;;;2.43;1.20;;;;;;;;;;5071881;28;20270;-86
2022/10/25 01:43:24;;;;;;;2.13;1.13;;;;;;;;;;5071653;28;20233;-86
2022/10/25 01:45:57;;;;;;;2.40;1.90;;;;;;;;;;5072574;28;20205;-86
2022/10/25 01:48:27;;;;;;;2.10;1.20;;;;;;;;;;5071044;28;20243;-86
2022/10/25 01:50:54;;;;;;;2.80;1.53;;;;;;;;;;5072403;28;20240;-88
2022/10/25 01:53:21;;;;;;;3.13;1.60;;;;;;;;;;5071450;28;20303;-87
2022/10/25 01:55:50;;;;;;;4.03;1.47;;;;;;;;;;5071567;28;20212;-87
2022/10/25 01:58:26;;;;;;;1.40;1.30;;;;;;;;;;5073948;28;20248;-88
2022/10/25 02:00:59;;;;;;;3.13;1.47;;;;;;;;;;5075729;28;20228;-88
2022/10/25 02:03:28;;;;;;;3.87;1.50;;;;;;;;;;5075291;28;20233;-88
2022/10/25 02:06:00;;;;;;;2.73;1.40;;;;;;;;;;5075372;28;20782;-88
2022/10/25 02:08:31;;;;;;;2.87;1.33;;;;;;;;;;5067469;28;20226;-87
2022/10/25 02:11:02;;;;;;;2.13;1.30;;;;;;;;;;5069281;28;20229;-88
2022/10/25 02:13:33;;;;;;;5.63;1.63;;;;;;;;;;5072200;28;20229;-88
2022/10/25 02:16:02;;;;;;;3.40;1.50;;;;;;;;;;5066225;28;20210;-88
2022/10/25 02:18:31;;;;;;;3.53;1.20;;;;;;;;;;5065446;28;20234;-89
2022/10/25 02:20:59;;;;;;;4.27;1.40;;;;;;;;;;5075242;28;20228;-88
2022/10/25 02:23:27;;;;;;;2.57;1.57;;;;;;;;;;5074751;28;20240;-88
2022/10/25 02:25:54;;;;;;;3.60;1.57;;;;;;;;;;5075426;28;20201;-89
2022/10/25 02:28:25;;;;;;;3.17;1.60;;;;;;;;;;5074207;28;20233;-89
2022/10/25 02:30:53;;;;;;;6.33;1.97;;;;;;;;;;5075251;28;20558;-88
2022/10/25 02:33:21;;;;;;;2.17;1.37;;;;;;;;;;5074711;28;20224;-88
2022/10/25 02:36:03;;;;;;;4.93;1.40;;;;;;;;;;5074762;28;20202;-88
2022/10/25 02:38:30;;;;;;;2.93;1.57;;;;;;;;;;5074499;28;20603;-89
2022/10/25 02:40:58;;;;;;;2.20;1.40;;;;;;;;;;5071327;28;20221;-89
2022/10/25 02:43:25;;;;;;;4.23;1.57;;;;;;;;;;5074207;28;20229;-88
2022/10/25 02:45:53;;;;;;;2.90;1.40;;;;;;;;;;5074754;28;20202;-88
2022/10/25 02:48:21;;;;;;;2.43;1.67;;;;;;;;;;5079368;28;20727;-89
2022/10/25 02:50:49;;;;;;;3.60;1.47;;;;;;;;;;5079876;28;20233;-89
2022/10/25 02:53:16;;;;;;;2.40;1.50;;;;;;;;;;5075644;28;20315;-88
2022/10/25 02:55:43;;;;;;;11.93;1.70;;;;;;;;;;5074611;28;20202;-88
2022/10/25 02:58:10;;;;;;;3.17;1.57;;;;;;;;;;5073561;28;20735;-88
2022/10/25 03:00:37;;;;;;;2.87;1.77;;;;;;;;;;5074380;28;20705;-88
2022/10/25 03:03:20;;;;;;;2.07;1.80;;;;;;;;;;5073746;28;20732;-88
2022/10/25 03:05:48;;;;;;;3.00;1.60;;;;;;;;;;5074479;28;20318;-88
2022/10/25 03:08:15;;;;;;;3.40;1.57;;;;;;;;;;5071999;28;20232;-88
2022/10/25 03:10:43;;;;;;;4.20;1.70;;;;;;;;;;5072281;28;20225;-88
2022/10/25 03:13:10;;;;;;;2.03;1.40;;;;;;;;;;5069548;28;20229;-89
2022/10/25 03:15:37;;;;;;;2.70;1.40;;;;;;;;;;5068781;28;20215;-88
2022/10/25 03:18:04;;;;;;;3.77;1.87;;;;;;;;;;5060769;28;20256;-88
2022/10/25 03:20:31;;;;;;;5.13;1.73;;;;;;;;;;5070227;28;20225;-89
2022/10/25 03:22:59;;;;;;;3.23;1.70;;;;;;;;;;5073616;28;20244;-89
2022/10/25 03:25:26;;;;;;;2.40;1.70;;;;;;;;;;5073989;28;20206;-88
2022/10/25 03:27:53;;;;;;;3.07;1.53;;;;;;;;;;5073122;28;20611;-88
2022/10/25 03:30:21;;;;;;;2.67;1.77;;;;;;;;;;5053474;28;20221;-88
2022/10/25 03:32:48;;;;;;;2.40;1.83;;;;;;;;;;5060117;28;20229;-88
2022/10/25 03:35:15;;;;;;;3.33;1.90;;;;;;;;;;5074046;28;20213;-88
2022/10/25 03:37:42;;;;;;;11.50;2.13;;;;;;;;;;5072997;28;20244;-88
2022/10/25 03:40:11;;;;;;;4.37;1.60;;;;;;;;;;5069618;28;20225;-87
2022/10/25 03:42:38;;;;;;;3.73;2.20;;;;;;;;;;5058740;28;20229;-88
2022/10/25 03:45:06;;;;;;;4.27;1.50;;;;;;;;;;5075596;28;20206;-88
2022/10/25 03:47:33;;;;;;;5.97;2.00;;;;;;;;;;5072996;28;20228;-88
2022/10/25 03:50:00;;;;;;;1.80;1.70;;;;;;;;;;5073490;28;20237;-87
2022/10/25 03:52:27;;;;;;;5.07;1.83;;;;;;;;;;5072770;28;20868;-88
2022/10/25 03:54:54;;;;;;;5.63;1.80;;;;;;;;;;5073180;28;20205;-88
2022/10/25 03:57:23;;;;;;;4.27;1.73;;;;;;;;;;5061779;28;20232;-88
2022/10/25 03:59:50;;;;;;;5.30;1.70;;;;;;;;;;5072450;28;20229;-89
2022/10/25 04:02:18;;;;;;;3.23;1.87;;;;;;;;;;5072699;28;20229;-88
2022/10/25 04:04:45;;;;;;;2.87;1.80;;;;;;;;;;5073197;28;20201;-88
2022/10/25 04:07:12;;;;;;;2.33;1.70;;;;;;;;;;5072651;28;20225;-88
2022/10/25 04:09:39;;;;;;;3.97;2.17;;;;;;;;;;5073129;28;20225;-88
2022/10/25 04:12:06;;;;;;;1.73;1.63;;;;;;;;;;5072277;28;21801;-89
2022/10/25 04:14:35;;;;;;;4.97;1.77;;;;;;;;;;5072721;28;20198;-88
2022/10/25 04:17:02;;;;;;;3.60;2.13;;;;;;;;;;5072216;28;20228;-89
2022/10/25 04:19:29;;;;;;;2.17;1.90;;;;;;;;;;5071764;28;20237;-88
2022/10/25 04:21:56;;;;;;;1.80;1.70;;;;;;;;;;5072046;28;20259;-88
2022/10/25 04:24:23;;;;;;;3.90;1.70;;;;;;;;;;5073458;28;20205;-88
2022/10/25 04:26:50;;;;;;;4.30;2.30;;;;;;;;;;5073910;28;20235;-88
2022/10/25 04:29:17;;;;;;;5.63;2.27;;;;;;;;;;5072537;28;20197;-88
2022/10/25 04:31:46;;;;;;;3.53;2.07;;;;;;;;;;5072534;28;20200;-88
2022/10/25 04:34:13;;;;;;;7.77;2.30;;;;;;;;;;5073210;28;20217;-89
2022/10/25 04:36:40;;;;;;;6.43;2.17;;;;;;;;;;5072716;28;20212;-88
2022/10/25 04:39:07;;;;;;;5.57;2.37;;;;;;;;;;5072454;28;20688;-89
2022/10/25 04:41:34;;;;;;;3.93;2.30;;;;;;;;;;5072217;28;20213;-88
2022/10/25 04:44:01;;;;;;;4.43;2.50;;;;;;;;;;5072473;28;20198;-88
2022/10/25 04:46:28;;;;;;;4.47;2.20;;;;;;;;;;5071978;28;20216;-88
2022/10/25 04:48:57;;;;;;;7.90;2.93;;;;;;;;;;5072288;28;20303;-88
2022/10/25 04:51:24;;;;;;;6.13;2.23;;;;;;;;;;5071849;28;20229;-88
2022/10/25 04:53:53;;;;;;;3.57;2.17;;;;;;;;;;5071819;28;20224;-89
2022/10/25 04:56:20;;;;;;;6.53;2.20;;;;;;;;;;5072199;28;20587;-88
2022/10/25 04:58:47;;;;;;;3.53;2.20;;;;;;;;;;5071604;28;20241;-89
2022/10/25 05:01:15;;;;;;;5.17;2.33;;;;;;;;;;5072097;28;20221;-88
2022/10/25 05:03:42;;;;;;;6.73;2.63;;;;;;;;;;5068285;27;20572;-88
2022/10/25 05:06:13;;;;;;;3.70;2.60;;;;;;;;;;5058851;28;20212;-89
2022/10/25 05:08:41;;;;;;;3.60;2.30;;;;;;;;;;5071776;28;20225;-92
2022/10/25 05:11:08;;;;;;;2.67;2.17;;;;;;;;;;5072687;28;20224;-91
2022/10/25 05:13:36;;;;;;;8.23;2.93;;;;;;;;;;5057766;28;20241;-92
2022/10/25 05:16:04;;;;;;;4.47;2.40;;;;;;;;;;5053469;28;20217;-92
2022/10/25 05:18:31;;;;;;;4.60;2.33;;;;;;;;;;5073005;28;20241;-91
2022/10/25 05:20:59;;;;;;;3.33;2.00;;;;;;;;;;5074486;28;20221;-91
2022/10/25 05:23:28;;;;;;;4.27;2.20;;;;;;;;;;5073270;28;20229;-91
2022/10/25 05:26:02;;;;;;;6.33;2.37;;;;;;;;;;5074670;28;20201;-91
2022/10/25 05:28:29;;;;;;;5.27;2.40;;;;;;;;;;5074305;28;20350;-92
2022/10/25 05:30:56;;;;;;;6.17;2.00;;;;;;;;;;5073464;28;20295;-92
2022/10/25 05:33:23;;;;;;;6.37;2.57;;;;;;;;;;5074288;28;20347;-89
2022/10/25 05:35:50;;;;;;;6.50;2.80;;;;;;;;;;5073702;28;20201;-91
2022/10/25 05:38:18;;;;;;;7.67;2.60;;;;;;;;;;5072225;28;20229;-91
2022/10/25 05:40:52;;;;;;;2.20;2.00;;;;;;;;;;5072979;28;20233;-92
2022/10/25 05:43:19;;;;;;;7.53;2.67;;;;;;;;;;5071874;28;20282;-91
2022/10/25 05:45:46;;;;;;;3.60;2.20;;;;;;;;;;5072838;28;20197;-91
2022/10/25 05:48:13;;;;;;;5.40;2.63;;;;;;;;;;5071754;28;20232;-90
2022/10/25 05:50:40;;;;;;;5.87;2.40;;;;;;;;;;5072068;28;20240;-90
2022/10/25 05:53:07;;;;;;;4.23;2.87;;;;;;;;;;5071981;28;20701;-90
2022/10/25 05:55:35;;;;;;;5.17;3.13;;;;;;;;;;5072797;28;20307;-91
2022/10/25 05:58:04;;;;;;;5.67;2.40;;;;;;;;;;5073619;28;20324;-90
2022/10/25 06:00:31;;;;;;;10.90;2.37;;;;;;;;;;5073937;28;20235;-90
2022/10/25 06:03:00;;;;;;;8.93;2.70;;;;;;;;;;5072375;28;20229;-89
2022/10/25 06:05:28;;;;;;;4.23;2.07;;;;;;;;;;5070293;28;20276;-90
2022/10/25 06:07:57;;;;;;;5.30;2.17;;;;;;;;;;5072859;28;20271;-90
2022/10/25 06:10:24;;;;;;;5.73;2.50;;;;;;;;;;5069486;28;20222;-91
2022/10/25 06:12:51;;;;;;;4.20;2.47;;;;;;;;;;5052405;28;20265;-91
2022/10/25 06:15:19;;;;;;;7.27;2.53;;;;;;;;;;5053557;28;20194;-90
2022/10/25 06:17:47;;;;;;;6.43;2.53;;;;;;;;;;5052405;28;20320;-90
2022/10/25 06:20:14;;;;;;;7.77;2.50;;;;;;;;;;5065844;28;20270;-91
2022/10/25 06:22:42;;;;;;;4.90;2.83;;;;;;;;;;5072587;28;20713;-91
2022/10/25 06:25:10;;;;;;;4.77;2.40;;;;;;;;;;5072686;28;20209;-92
2022/10/25 06:27:37;;;;;;;6.40;2.53;;;;;;;;;;5070910;28;20245;-92
2022/10/25 06:30:04;;;;;;;4.40;2.87;;;;;;;;;;5057275;28;20232;-90
2022/10/25 06:32:35;;;;;;;5.63;2.37;;;;;;;;;;5061342;28;20239;-92
2022/10/25 06:35:02;;;;;;;3.90;2.50;;;;;;;;;;5072342;28;20704;-90
2022/10/25 06:37:30;;;;;;;4.43;2.40;;;;;;;;;;5071479;28;20237;-91
2022/10/25 06:39:57;;;;;;;7.00;2.33;;;;;;;;;;5072609;28;20217;-92
2022/10/25 06:42:24;;;;;;;4.17;3.70;;;;;;;;;;5071646;28;20700;-91
2022/10/25 06:44:51;;;;;;;2.97;2.67;;;;;;;;;;5074630;28;20662;-92
2022/10/25 06:47:19;;;;;;;7.07;3.20;;;;;;;;;;5075153;28;20603;-92
2022/10/25 06:49:48;;;;;;;8.13;3.00;;;;;;;;;;5075310;28;20221;-92
2022/10/25 06:52:15;;;;;;;7.03;2.33;;;;;;;;;;5076512;28;20236;-91
2022/10/25 06:54:42;;;;;;;5.13;2.67;;;;;;;;;;5076881;28;20585;-91
2022/10/25 06:57:09;;;;;;;4.83;3.30;;;;;;;;;;5084283;28;20237;-94
2022/10/25 06:59:36;;;;;;;5.97;3.07;;;;;;;;;;5078103;28;20225;-94
2022/10/25 07:02:03;;;;;;;5.10;2.70;;;;;;;;;;5076625;28;20248;-92
2022/10/25 07:04:31;;;;;;;3.83;2.37;;;;;;;;;;5077267;28;20212;-93
2022/10/25 07:07:00;;;;;;;6.07;2.60;;;;;;;;;;5076458;28;20260;-92
2022/10/25 07:09:28;;;;;;;2.50;2.30;;;;;;;;;;5075425;28;20225;-89
2022/10/25 07:11:55;;;;;;;4.43;2.40;;;;;;;;;;5074195;28;20762;-88
2022/10/25 07:14:22;;;;;;;5.10;2.60;;;;;;;;;;5074200;28;20201;-89
2022/10/25 07:16:49;;;;;;;3.70;2.37;;;;;;;;;;5073783;28;20236;-88
2022/10/25 07:19:16;;;;;;;4.83;2.70;;;;;;;;;;5062926;28;20225;-89
2022/10/25 07:21:44;;;;;;;6.77;2.83;;;;;;;;;;5074274;28;20208;-88
2022/10/25 07:24:12;;;;;;;5.57;2.50;;;;;;;;;;5064783;28;20676;-88
2022/10/25 07:26:40;;;;;;;4.53;2.30;;;;;;;;;;5054155;28;20218;-89
2022/10/25 07:29:08;;;;;;;6.60;2.80;;;;;;;;;;5070221;28;20288;-89
2022/10/25 07:31:36;;;;;;;9.13;2.70;;;;;;;;;;5074084;28;20194;-89
2022/10/25 07:34:04;;;;;;;6.03;2.67;;;;;;;;;;5075043;28;20205;-89
2022/10/25 07:36:31;;;;;;;8.00;3.00;;;;;;;;;;5073597;28;20206;-88
2022/10/25 07:38:59;;;;;;;5.10;2.53;;;;;;;;;;5073277;28;20224;-90
2022/10/25 07:41:28;;;;;;;5.67;2.80;;;;;;;;;;5074037;28;20237;-89
2022/10/25 07:43:55;;;;;;;5.20;2.30;;;;;;;;;;5074152;28;20682;-90
2022/10/25 07:46:22;;;;;;;3.33;2.43;;;;;;;;;;5073868;28;20288;-89
2022/10/25 07:48:51;;;;;;;3.33;2.00;;;;;;;;;;5073683;28;20229;-90
2022/10/25 07:51:19;;;;;;;4.63;2.13;;;;;;;;;;5074017;28;20685;-88
2022/10/25 07:53:46;;;;;;;6.60;2.27;;;;;;;;;;5072953;28;20644;-86
2022/10/25 07:56:14;;;;;;;11.27;3.23;;;;;;;;;;5072948;28;20209;-88
2022/10/25 07:58:42;;;;;;;7.67;2.57;;;;;;;;;;5071145;28;20312;-87
2022/10/25 08:01:10;;;;;;;4.03;2.53;;;;;;;;;;5073414;28;20604;-88
2022/10/25 08:03:37;;;;;;;9.43;2.70;;;;;;;;;;5071879;28;20236;-88
2022/10/25 08:06:05;;;;;;;4.70;2.10;;;;;;;;;;5053971;28;20220;-87
2022/10/25 08:08:32;;;;;;;4.33;2.73;;;;;;;;;;5052538;28;20230;-86
2022/10/25 08:11:02;;;;;;;4.73;2.47;;;;;;;;;;5066124;28;20229;-86
2022/10/25 08:13:29;;;;;;;3.77;2.30;;;;;;;;;;5072397;28;20293;-86
2022/10/25 08:15:58;;;;;;;7.17;3.03;;;;;;;;;;5072841;28;20209;-86
2022/10/25 08:18:25;;;;;;;4.10;2.83;;;;;;;;;;5072226;28;20320;-90
2022/10/25 08:20:52;;;;;;;7.97;2.50;;;;;;;;;;5072595;28;20217;-88
2022/10/25 08:23:19;;;;;;;3.20;2.50;;;;;;;;;;5072324;28;20233;-85
2022/10/25 08:25:47;;;;;;;5.30;2.70;;;;;;;;;;5072635;28;20670;-87
2022/10/25 08:28:14;;;;;;;4.97;2.80;;;;;;;;;;5072419;28;20229;-86
2022/10/25 08:30:42;;;;;;;4.93;2.73;;;;;;;;;;5072536;28;20229;-87
2022/10/25 08:33:10;;;;;;;4.03;2.63;;;;;;;;;;5072098;28;20606;-87
2022/10/25 08:35:37;;;;;;;3.83;1.93;;;;;;;;;;5072591;28;20213;-87
2022/10/25 08:38:05;;;;;;;4.03;2.50;;;;;;;;;;5072004;28;20239;-88
2022/10/25 08:40:36;;;;;;;4.23;2.50;;;;;;;;;;5072603;28;20229;-86
2022/10/25 08:43:08;;;;;;;7.50;2.50;;;;;;;;;;5071900;28;20244;-87
2022/10/25 08:45:37;;;;;;;4.23;2.27;;;;;;;;;;5072301;28;20674;-88
2022/10/25 08:48:04;;;;;;;7.03;2.63;;;;;;;;;;5056072;28;20232;-87
2022/10/25 08:50:38;;;;;;;6.97;2.23;;;;;;;;;;5071862;28;20236;-86
2022/10/25 08:53:08;;;;;;;3.77;1.73;;;;;;;;;;5071862;28;20237;-87
2022/10/25 08:55:36;;;;;;;9.33;2.37;;;;;;;;;;5072378;28;20204;-87
2022/10/25 08:58:04;;;;;;;5.53;2.70;;;;;;;;;;5071634;28;20728;-87
2022/10/25 09:00:32;;;;;;;5.17;2.37;;;;;;;;;;5072855;28;20693;-87
2022/10/25 09:03:00;;;;;;;7.50;2.33;;;;;;;;;;5071495;28;20237;-88
2022/10/25 09:05:36;;;;;;;6.07;2.37;;;;;;;;;;5071884;28;20197;-88
2022/10/25 09:08:15;;;;;;;6.47;2.17;;;;;;;;;;5070823;28;20825;-87
2022/10/25 09:10:50;;;;;;;4.47;2.00;;;;;;;;;;5071944;28;20233;-87
2022/10/25 09:13:25;;;;;;;6.27;2.30;;;;;;;;;;5071525;28;20723;-86
2022/10/25 09:15:55;;;;;;;4.87;2.03;;;;;;;;;;5072180;28;20825;-88
2022/10/25 09:18:28;;;;;;;4.73;1.77;;;;;;;;;;5075968;28;20229;-88
2022/10/25 09:20:55;;;;;;;7.80;2.73;;;;;;;;;;5072569;28;20243;-87
2022/10/25 09:23:28;;;;;;;3.83;2.03;;;;;;;;;;5071550;28;20237;-88
2022/10/25 09:25:59;;;;;;;4.80;2.20;;;;;;;;;;5072100;28;20209;-87
2022/10/25 09:28:29;;;;;;;3.77;1.93;;;;;;;;;;5070126;28;20237;-87
2022/10/25 09:30:58;;;;;;;5.47;2.13;;;;;;;;;;5071501;28;20697;-88
2022/10/25 09:33:29;;;;;;;3.97;2.03;;;;;;;;;;5071071;28;20236;-87
2022/10/25 09:35:57;;;;;;;4.00;2.10;;;;;;;;;;5071641;28;20198;-87
2022/10/25 09:38:27;;;;;;;3.93;2.17;;;;;;;;;;5053535;28;20230;-87
2022/10/25 09:40:56;;;;;;;8.17;2.30;;;;;;;;;;5051230;28;20226;-88
2022/10/25 09:43:27;;;;;;;4.53;2.00;;;;;;;;;;5050850;28;20707;-87
2022/10/25 09:45:56;;;;;;;6.37;2.20;;;;;;;;;;5051528;28;20559;-87
2022/10/25 09:48:26;;;;;;;5.50;2.37;;;;;;;;;;5050832;28;20705;-87
2022/10/25 09:50:55;;;;;;;6.00;2.20;;;;;;;;;;5053596;28;20236;-88
2022/10/25 09:53:23;;;;;;;5.50;1.97;;;;;;;;;;5070876;28;20236;-88
2022/10/25 09:55:53;;;;;;;5.77;1.83;;;;;;;;;;5071245;28;20228;-88
2022/10/25 09:58:22;;;;;;;5.83;2.80;;;;;;;;;;5070435;28;20229;-86
2022/10/25 10:00:50;;;;;;;3.03;1.87;;;;;;;;;;5071192;28;20225;-86
2022/10/25 10:03:17;;;;;;;4.93;1.90;;;;;;;;;;5070708;28;20234;-88
2022/10/25 10:05:48;;;;;;;8.03;2.37;;;;;;;;;;5071186;28;20204;-89
2022/10/25 10:08:17;;;;;;;4.67;1.80;;;;;;;;;;5060873;28;20595;-86
2022/10/25 10:10:44;;;;;;;4.97;1.60;;;;;;;;;;5071397;28;20565;-88
2022/10/25 10:13:16;;;;;;;5.73;2.23;;;;;;;;;;5070678;28;20240;-88
2022/10/25 10:15:48;;;;;;;7.33;2.47;;;;;;;;;;5070982;28;20556;-89
2022/10/25 10:18:25;;;;;;;6.43;1.93;;;;;;;;;;5059640;28;20222;-89
2022/10/25 10:20:57;;;;;;;5.57;1.87;;;;;;;;;;5055078;28;20623;-88
2022/10/25 10:23:26;;;;;;;8.70;3.07;;;;;;;;;;5054321;28;20229;-88
2022/10/25 10:25:54;;;;;;;1.50;1.40;;;;;;;;;;5054849;28;20577;-88
2022/10/25 10:28:22;;;;;;;4.80;1.93;;;;;;;;;;5054159;28;20237;-89
2022/10/25 10:30:53;;;;;;;4.80;1.90;;;;;;;;;;5065336;28;20229;-88
2022/10/25 10:33:20;;;;;;;5.30;1.80;;;;;;;;;;5074217;28;20252;-89
2022/10/25 10:35:48;;;;;;;4.43;1.97;;;;;;;;;;5074979;28;20205;-90
2022/10/25 10:38:22;;;;;;;4.60;1.77;;;;;;;;;;5073672;28;20236;-89
2022/10/25 10:40:50;;;;;;;2.13;1.70;;;;;;;;;;5074652;28;20232;-89
2022/10/25 10:43:32;;;;;;;4.17;1.97;;;;;;;;;;5074096;28;20259;-89
2022/10/25 10:46:04;;;;;;;4.28;1.60;;;;;;;;;;5074704;28;20544;-89
2022/10/25 10:48:35;;;;;;;2.63;1.97;;;;;;;;;;5073676;28;20241;-88
2022/10/25 10:51:02;;;;;;;7.07;2.40;;;;;;;;;;5074160;28;20229;-88
2022/10/25 10:53:31;;;;;;;5.27;2.20;;;;;;;;;;5073794;28;20233;-88
2022/10/25 10:55:59;;;;;;;3.63;2.00;;;;;;;;;;5074422;28;20202;-89
2022/10/25 10:58:28;;;;;;;4.10;1.75;;;;;;;;;;5072976;28;20705;-91
2022/10/25 11:00:57;;;;;;;2.83;1.88;;;;;;;;;;5073913;28;20236;-88
2022/10/25 11:03:42;;;;;;;4.23;1.60;;;;;;;;;;5073530;28;20229;-88
2022/10/25 11:06:12;;;;;;;2.23;1.80;;;;;;;;;;5074015;28;20207;-89
2022/10/25 11:08:39;;;;;;;6.68;2.30;;;;;;;;;;5073019;28;20279;-89
2022/10/25 11:11:14;;;;;;;2.43;1.80;;;;;;;;;;5074157;28;20233;-89
2022/10/25 11:13:45;;;;;;;4.32;1.77;;;;;;;;;;5073694;28;20232;-89
2022/10/25 11:16:31;;;;;;;3.67;1.37;;;;;;;;;;5074116;28;20185;-89
2022/10/25 11:19:18;;;;;;;3.20;1.65;;;;;;;;;;5073754;28;20228;-90
2022/10/25 11:22:07;;;;;;;2.40;1.52;;;;;;;;;;5073977;28;20196;-91
2022/10/25 11:24:37;;;;;;;3.85;1.50;;;;;;;;;;5074283;28;20174;-92
2022/10/25 11:27:08;;;;;;;4.05;1.52;;;;;;;;;;5072936;28;20882;-91
2022/10/25 11:29:43;;;;;;;4.15;2.13;;;;;;;;;;5072396;28;20209;-90
2022/10/25 11:32:17;;;;;;;3.72;1.90;;;;;;;;;;5072519;28;20231;-88
2022/10/25 11:34:48;;;;;;;3.35;1.80;;;;;;;;;;5071314;28;20205;-87
2022/10/25 11:37:20;;;;;;;5.97;1.88;;;;;;;;;;5072899;28;20233;-89
2022/10/25 11:39:55;;;;;;;2.53;1.60;;;;;;;;;;5073470;28;20764;-89
2022/10/25 11:42:30;;;;;;;3.45;1.77;;;;;;;;;;5073119;28;20232;-90
2022/10/25 11:45:19;;;;;;;6.10;2.20;;;;;;;;;;5073967;28;20189;-88
2022/10/25 11:47:52;;;;;;;1.73;1.60;;;;;;;;;;5073155;28;20233;-92
2022/10/25 11:50:27;;;;;;;4.20;1.58;;;;;;;;;;5074426;28;20889;-92
2022/10/25 11:53:00;;;;;;;2.10;1.67;;;;;;;;;;5073430;28;20586;-91
2022/10/25 11:55:32;;;;;;;4.97;1.63;;;;;;;;;;5073853;28;20223;-92
2022/10/25 11:58:03;;;;;;;3.45;1.80;;;;;;;;;;5073613;28;20237;-90
2022/10/25 12:00:37;;;;;;;3.03;1.50;;;;;;;;;;5073674;28;20229;-90
2022/10/25 12:03:15;;;;;;;4.82;1.42;;;;;;;;;;5073383;28;20235;-92
2022/10/25 12:05:46;;;;;;;3.97;1.50;;;;;;;;;;5074042;28;20182;-91
2022/10/25 12:08:20;;;;;;;4.18;1.80;;;;;;;;;;5072548;28;20236;-90
2022/10/25 12:10:48;;;;;;;2.78;1.70;;;;;;;;;;5073364;28;20228;-90
2022/10/25 12:13:17;;;;;;;4.40;1.60;;;;;;;;;;5072709;28;20236;-92
2022/10/25 12:15:46;;;;;;;5.22;2.50;;;;;;;;;;5071962;28;20193;-88
2022/10/25 12:18:15;;;;;;;2.88;1.80;;;;;;;;;;5072020;28;20233;-88
2022/10/25 12:20:44;;;;;;;2.92;1.60;;;;;;;;;;5072790;28;20233;-88
2022/10/25 12:23:13;;;;;;;3.67;1.60;;;;;;;;;;5072029;28;20240;-88
2022/10/25 12:25:44;;;;;;;2.28;1.52;;;;;;;;;;5072761;28;20229;-87
2022/10/25 12:28:15;;;;;;;2.85;1.50;;;;;;;;;;5071747;28;20233;-87
2022/10/25 12:30:42;;;;;;;4.40;1.80;;;;;;;;;;5072058;28;20232;-89
2022/10/25 12:33:16;;;;;;;3.97;1.20;;;;;;;;;;5071960;28;20229;-88
2022/10/25 12:35:48;;;;;;;5.40;1.70;;;;;;;;;;5072399;28;20199;-88
2022/10/25 12:38:19;;;;;;;3.75;1.50;;;;;;;;;;5071654;28;20244;-88
2022/10/25 12:40:47;;;;;;;2.38;1.13;;;;;;;;;;5072075;28;20236;-88
2022/10/25 12:43:17;;;;;;;3.72;1.63;;;;;;;;;;5071314;28;20706;-88
2022/10/25 12:45:56;;;;;;;4.80;1.40;;;;;;;;;;5072021;28;20260;-88
2022/10/25 12:48:38;;;;;;;7.50;1.80;;;;;;;;;;5071205;28;20236;-88
2022/10/25 12:51:14;;;;;;;1.50;1.17;;;;;;;;;;5071839;28;20229;-87
2022/10/25 12:54:00;;;;;;;3.85;1.50;;;;;;;;;;5071527;28;20248;-88
2022/10/25 12:56:33;;;;;;;4.13;1.55;;;;;;;;;;5071927;28;20189;-87
2022/10/25 12:59:06;;;;;;;1.52;1.23;;;;;;;;;;5072018;28;20205;-88
2022/10/25 13:01:45;;;;;;;2.63;1.55;;;;;;;;;;5051716;28;20186;-88
2022/10/25 13:04:24;;;;;;;2.45;1.20;;;;;;;;;;5071387;28;20684;-88
2022/10/25 13:06:53;;;;;;;2.88;1.15;;;;;;;;;;5071371;28;20233;-88
2022/10/25 13:09:22;;;;;;;2.90;1.75;;;;;;;;;;5051630;28;20198;-88
2022/10/25 13:11:51;;;;;;;1.98;1.50;;;;;;;;;;5051621;28;20312;-88
2022/10/25 13:14:24;;;;;;;4.90;1.80;;;;;;;;;;5054063;28;20221;-88
2022/10/25 13:16:51;;;;;;;4.22;2.15;;;;;;;;;;5066714;28;20232;-89
2022/10/25 13:19:25;;;;;;;2.65;1.65;;;;;;;;;;5070838;28;20673;-89
2022/10/25 13:22:11;;;;;;;2.70;1.52;;;;;;;;;;5072199;28;20235;-88
2022/10/25 13:24:38;;;;;;;1.98;1.20;;;;;;;;;;5071697;28;20287;-89
2022/10/25 13:27:21;;;;;;;2.50;1.60;;;;;;;;;;5071211;28;20225;-89
2022/10/25 13:30:15;;;;;;;2.97;1.50;;;;;;;;;;5070529;28;20217;-90
2022/10/25 13:32:43;;;;;;;1.90;1.52;;;;;;;;;;5071293;28;20240;-89
2022/10/25 13:35:25;;;;;;;7.53;2.20;;;;;;;;;;5071897;28;20292;-90
2022/10/25 13:37:54;;;;;;;2.58;1.60;;;;;;;;;;5070674;28;20243;-90
2022/10/25 13:40:23;;;;;;;2.92;1.45;;;;;;;;;;5072888;28;20236;-90
2022/10/25 13:42:58;;;;;;;1.77;1.42;;;;;;;;;;5071859;28;20239;-89
2022/10/25 13:45:30;;;;;;;3.25;1.73;;;;;;;;;;5060253;28;20209;-87
2022/10/25 13:47:57;;;;;;;2.33;1.55;;;;;;;;;;5070922;28;20229;-88
2022/10/25 13:50:28;;;;;;;2.90;1.40;;;;;;;;;;5071370;28;20229;-87
2022/10/25 13:53:00;;;;;;;4.18;1.52;;;;;;;;;;5072223;28;20239;-88
2022/10/25 13:55:28;;;;;;;3.17;1.60;;;;;;;;;;5075351;28;20673;-88
2022/10/25 13:57:55;;;;;;;1.48;1.23;;;;;;;;;;5074908;28;20260;-88
2022/10/25 14:00:34;;;;;;;3.60;1.48;;;;;;;;;;5075513;28;20649;-88
2022/10/25 14:03:24;;;;;;;1.83;1.35;;;;;;;;;;5075227;28;20232;-89
2022/10/25 14:06:11;;;;;;;1.58;1.20;;;;;;;;;;5055125;28;21022;-88
2022/10/25 14:08:47;;;;;;;3.20;1.55;;;;;;;;;;5074597;28;20233;-88
2022/10/25 14:11:16;;;;;;;1.80;1.20;;;;;;;;;;5075454;28;20217;-86
2022/10/25 14:13:47;;;;;;;2.22;1.70;;;;;;;;;;5074770;28;20719;-85
2022/10/25 14:16:20;;;;;;;3.92;1.25;;;;;;;;;;5072969;28;20743;-86
2022/10/25 14:18:47;;;;;;;3.10;2.03;;;;;;;;;;5073248;28;20229;-85
2022/10/25 14:21:15;;;;;;;2.67;1.27;;;;;;;;;;5074652;28;20716;-86
2022/10/25 14:23:43;;;;;;;3.70;1.40;;;;;;;;;;5074290;28;20233;-87
2022/10/25 14:26:14;;;;;;;3.83;2.15;;;;;;;;;;5075057;28;20224;-88
2022/10/25 14:28:41;;;;;;;2.67;1.38;;;;;;;;;;5074117;28;20240;-86
2022/10/25 14:31:12;;;;;;;1.65;1.30;;;;;;;;;;5074460;28;20228;-86
2022/10/25 14:33:42;;;;;;;3.28;1.90;;;;;;;;;;5074366;28;20229;-85
2022/10/25 14:36:10;;;;;;;1.67;1.15;;;;;;;;;;5074863;28;20217;-86
2022/10/25 14:38:49;;;;;;;4.05;1.35;;;;;;;;;;5073858;28;20736;-86
2022/10/25 14:41:20;;;;;;;2.67;1.40;;;;;;;;;;5054165;28;20746;-85
2022/10/25 14:43:47;;;;;;;1.33;1.23;;;;;;;;;;5053860;28;20261;-85
2022/10/25 14:46:15;;;;;;;8.52;2.35;;;;;;;;;;5056920;28;20206;-85
2022/10/25 14:48:44;;;;;;;2.13;1.38;;;;;;;;;;5073699;28;20452;-85
2022/10/25 14:51:18;;;;;;;1.25;0.90;;;;;;;;;;5074130;28;20319;-86
2022/10/25 14:53:49;;;;;;;2.25;1.05;;;;;;;;;;5073939;28;20233;-85
2022/10/25 14:56:21;;;;;;;1.95;1.30;;;;;;;;;;5056504;28;20205;-86
2022/10/25 14:58:49;;;;;;;3.25;1.00;;;;;;;;;;5053702;28;20237;-86